sensor_id;sensor_type;location;lat;lon;timestamp;pressure;altitude;pressure_sealevel;temperature
63689;BMP280;54895;40.928;14.480;2024-02-23T00:00:48;101221.72;;;24.55
63689;BMP280;54895;40.928;14.480;2024-02-23T00:03:15;101211.69;;;24.98
63689;BMP280;54895;40.928;14.480;2024-02-23T00:05:41;101208.97;;;24.46
63689;BMP280;54895;40.928;14.480;2024-02-23T00:08:07;101206.22;;;25.51
63689;BMP280;54895;40.928;14.480;2024-02-23T00:10:35;101195.31;;;26.09
63689;BMP280;54895;40.928;14.480;2024-02-23T00:13:01;101207.44;;;24.68
63689;BMP280;54895;40.928;14.480;2024-02-23T00:15:28;101199.81;;;25.89
63689;BMP280;54895;40.928;14.480;2024-02-23T00:21:09;101195.75;;;25.06
63689;BMP280;54895;40.928;14.480;2024-02-23T00:23:37;101199.63;;;23.74
63689;BMP280;54895;40.928;14.480;2024-02-23T00:26:12;101193.91;;;23.81
63689;BMP280;54895;40.928;14.480;2024-02-23T00:28:39;101184.91;;;21.77
63689;BMP280;54895;40.928;14.480;2024-02-23T00:31:05;101182.06;;;22.28
63689;BMP280;54895;40.928;14.480;2024-02-23T00:33:32;101183.06;;;21.79
63689;BMP280;54895;40.928;14.480;2024-02-23T00:35:59;101182.59;;;21.83
63689;BMP280;54895;40.928;14.480;2024-02-23T00:38:25;101179.72;;;20.31
63689;BMP280;54895;40.928;14.480;2024-02-23T00:40:51;101175.59;;;26.57
63689;BMP280;54895;40.928;14.480;2024-02-23T00:43:19;101187.81;;;27.89
63689;BMP280;54895;40.928;14.480;2024-02-23T00:45:45;101194.34;;;28.56
63689;BMP280;54895;40.928;14.480;2024-02-23T00:48:12;101193.72;;;27.64
63689;BMP280;54895;40.928;14.480;2024-02-23T00:50:39;101173.75;;;24.61
63689;BMP280;54895;40.928;14.480;2024-02-23T00:53:06;101174.88;;;27.38
63689;BMP280;54895;40.928;14.480;2024-02-23T00:55:32;101172.81;;;27.03
63689;BMP280;54895;40.928;14.480;2024-02-23T00:57:58;101170.00;;;27.19
63689;BMP280;54895;40.928;14.480;2024-02-23T01:00:25;101164.03;;;25.81
63689;BMP280;54895;40.928;14.480;2024-02-23T01:02:51;101162.47;;;27.02
63689;BMP280;54895;40.928;14.480;2024-02-23T01:05:17;101154.19;;;26.05
63689;BMP280;54895;40.928;14.480;2024-02-23T01:07:44;101158.19;;;25.73
63689;BMP280;54895;40.928;14.480;2024-02-23T01:10:10;101151.63;;;27.91
63689;BMP280;54895;40.928;14.480;2024-02-23T01:12:36;101156.56;;;26.59
63689;BMP280;54895;40.928;14.480;2024-02-23T01:15:03;101150.63;;;27.82
63689;BMP280;54895;40.928;14.480;2024-02-23T01:17:30;101143.22;;;26.98
63689;BMP280;54895;40.928;14.480;2024-02-23T01:22:46;101138.59;;;27.89
63689;BMP280;54895;40.928;14.480;2024-02-23T01:25:12;101131.59;;;28.43
63689;BMP280;54895;40.928;14.480;2024-02-23T01:27:41;101120.00;;;28.44
63689;BMP280;54895;40.928;14.480;2024-02-23T01:30:08;101116.47;;;24.46
63689;BMP280;54895;40.928;14.480;2024-02-23T01:32:34;101123.44;;;24.49
63689;BMP280;54895;40.928;14.480;2024-02-23T01:35:04;101117.56;;;25.50
63689;BMP280;54895;40.928;14.480;2024-02-23T01:37:30;101112.47;;;27.49
63689;BMP280;54895;40.928;14.480;2024-02-23T01:39:58;101101.16;;;27.40
63689;BMP280;54895;40.928;14.480;2024-02-23T01:42:25;101083.81;;;19.37
63689;BMP280;54895;40.928;14.480;2024-02-23T01:44:52;101094.38;;;25.49
63689;BMP280;54895;40.928;14.480;2024-02-23T01:47:19;101083.91;;;27.35
63689;BMP280;54895;40.928;14.480;2024-02-23T01:49:46;101087.09;;;28.03
63689;BMP280;54895;40.928;14.480;2024-02-23T01:52:13;101086.28;;;28.18
63689;BMP280;54895;40.928;14.480;2024-02-23T01:54:40;101084.59;;;27.36
63689;BMP280;54895;40.928;14.480;2024-02-23T01:57:08;101084.16;;;27.60
63689;BMP280;54895;40.928;14.480;2024-02-23T01:59:36;101080.09;;;27.07
63689;BMP280;54895;40.928;14.480;2024-02-23T02:02:04;101072.63;;;27.44
63689;BMP280;54895;40.928;14.480;2024-02-23T02:04:31;101063.03;;;28.60
63689;BMP280;54895;40.928;14.480;2024-02-23T02:06:59;101064.78;;;28.30
63689;BMP280;54895;40.928;14.480;2024-02-23T02:09:25;101052.00;;;28.17
63689;BMP280;54895;40.928;14.480;2024-02-23T02:11:52;101056.44;;;26.96
63689;BMP280;54895;40.928;14.480;2024-02-23T02:14:18;101049.09;;;27.01
63689;BMP280;54895;40.928;14.480;2024-02-23T02:16:45;101049.38;;;26.41
63689;BMP280;54895;40.928;14.480;2024-02-23T02:19:12;101039.88;;;27.27
63689;BMP280;54895;40.928;14.480;2024-02-23T02:25:01;101013.78;;;26.54
63689;BMP280;54895;40.928;14.480;2024-02-23T02:27:30;101009.75;;;25.76
63689;BMP280;54895;40.928;14.480;2024-02-23T02:29:57;101009.66;;;28.61
63689;BMP280;54895;40.928;14.480;2024-02-23T02:32:24;101006.25;;;26.88
63689;BMP280;54895;40.928;14.480;2024-02-23T02:34:50;101001.03;;;24.91
63689;BMP280;54895;40.928;14.480;2024-02-23T02:37:16;100992.88;;;25.20
63689;BMP280;54895;40.928;14.480;2024-02-23T02:39:43;100995.78;;;25.68
63689;BMP280;54895;40.928;14.480;2024-02-23T02:42:09;100991.00;;;25.53
63689;BMP280;54895;40.928;14.480;2024-02-23T02:44:36;100988.94;;;22.87
63689;BMP280;54895;40.928;14.480;2024-02-23T02:47:02;100983.25;;;25.79
63689;BMP280;54895;40.928;14.480;2024-02-23T02:49:29;100970.75;;;24.70
63689;BMP280;54895;40.928;14.480;2024-02-23T02:51:55;100967.16;;;26.00
63689;BMP280;54895;40.928;14.480;2024-02-23T02:54:21;100963.13;;;23.99
63689;BMP280;54895;40.928;14.480;2024-02-23T02:56:48;100964.84;;;26.43
63689;BMP280;54895;40.928;14.480;2024-02-23T02:59:16;100958.59;;;24.44
63689;BMP280;54895;40.928;14.480;2024-02-23T03:01:44;100950.31;;;24.98
63689;BMP280;54895;40.928;14.480;2024-02-23T03:04:11;100952.31;;;24.68
63689;BMP280;54895;40.928;14.480;2024-02-23T03:06:38;100957.28;;;26.09
63689;BMP280;54895;40.928;14.480;2024-02-23T03:09:04;100951.06;;;24.02
63689;BMP280;54895;40.928;14.480;2024-02-23T03:11:31;100950.34;;;23.88
63689;BMP280;54895;40.928;14.480;2024-02-23T03:13:57;100952.03;;;26.13
63689;BMP280;54895;40.928;14.480;2024-02-23T03:16:23;100939.31;;;25.86
63689;BMP280;54895;40.928;14.480;2024-02-23T03:18:52;100939.47;;;26.91
63689;BMP280;54895;40.928;14.480;2024-02-23T03:21:20;100930.72;;;28.32
63689;BMP280;54895;40.928;14.480;2024-02-23T03:26:29;100915.47;;;22.01
63689;BMP280;54895;40.928;14.480;2024-02-23T03:28:56;100900.13;;;22.28
63689;BMP280;54895;40.928;14.480;2024-02-23T03:31:22;100905.09;;;24.48
63689;BMP280;54895;40.928;14.480;2024-02-23T03:33:48;100892.28;;;24.80
63689;BMP280;54895;40.928;14.480;2024-02-23T03:36:14;100901.50;;;25.02
63689;BMP280;54895;40.928;14.480;2024-02-23T03:38:41;100905.53;;;25.16
63689;BMP280;54895;40.928;14.480;2024-02-23T03:41:07;100900.09;;;24.72
63689;BMP280;54895;40.928;14.480;2024-02-23T03:43:33;100901.59;;;27.38
63689;BMP280;54895;40.928;14.480;2024-02-23T03:46:00;100886.84;;;23.43
63689;BMP280;54895;40.928;14.480;2024-02-23T03:48:27;100888.09;;;26.00
63689;BMP280;54895;40.928;14.480;2024-02-23T03:50:53;100889.72;;;25.59
63689;BMP280;54895;40.928;14.480;2024-02-23T03:53:20;100889.28;;;23.51
63689;BMP280;54895;40.928;14.480;2024-02-23T03:55:46;100896.53;;;22.96
63689;BMP280;54895;40.928;14.480;2024-02-23T03:58:12;100908.94;;;24.30
63689;BMP280;54895;40.928;14.480;2024-02-23T04:00:39;100910.13;;;25.27
63689;BMP280;54895;40.928;14.480;2024-02-23T04:03:05;100910.13;;;25.11
63689;BMP280;54895;40.928;14.480;2024-02-23T04:05:31;100897.75;;;24.51
63689;BMP280;54895;40.928;14.480;2024-02-23T04:07:58;100902.56;;;24.39
63689;BMP280;54895;40.928;14.480;2024-02-23T04:10:24;100901.94;;;23.46
63689;BMP280;54895;40.928;14.480;2024-02-23T04:12:50;100902.97;;;23.53
63689;BMP280;54895;40.928;14.480;2024-02-23T04:15:17;100903.91;;;25.09
63689;BMP280;54895;40.928;14.480;2024-02-23T04:17:45;100901.19;;;24.67
63689;BMP280;54895;40.928;14.480;2024-02-23T04:20:11;100904.72;;;24.69
63689;BMP280;54895;40.928;14.480;2024-02-23T04:26:20;100900.72;;;24.28
63689;BMP280;54895;40.928;14.480;2024-02-23T04:28:46;100892.88;;;23.93
63689;BMP280;54895;40.928;14.480;2024-02-23T04:31:13;100867.31;;;21.32
63689;BMP280;54895;40.928;14.480;2024-02-23T04:33:39;100891.13;;;23.21
63689;BMP280;54895;40.928;14.480;2024-02-23T04:36:06;100877.47;;;22.35
63689;BMP280;54895;40.928;14.480;2024-02-23T04:38:35;100869.72;;;21.17
63689;BMP280;54895;40.928;14.480;2024-02-23T04:41:03;100880.31;;;23.48
63689;BMP280;54895;40.928;14.480;2024-02-23T04:43:33;100887.28;;;22.76
63689;BMP280;54895;40.928;14.480;2024-02-23T04:46:00;100884.78;;;22.80
63689;BMP280;54895;40.928;14.480;2024-02-23T04:48:26;100882.50;;;22.63
63689;BMP280;54895;40.928;14.480;2024-02-23T04:50:53;100882.47;;;23.76
63689;BMP280;54895;40.928;14.480;2024-02-23T04:53:19;100900.75;;;23.49
63689;BMP280;54895;40.928;14.480;2024-02-23T04:55:46;100904.59;;;25.71
63689;BMP280;54895;40.928;14.480;2024-02-23T04:58:12;100885.25;;;23.38
63689;BMP280;54895;40.928;14.480;2024-02-23T05:00:39;100889.34;;;23.26
63689;BMP280;54895;40.928;14.480;2024-02-23T05:03:06;100892.66;;;24.03
63689;BMP280;54895;40.928;14.480;2024-02-23T05:05:32;100883.09;;;22.62
63689;BMP280;54895;40.928;14.480;2024-02-23T05:07:59;100883.31;;;22.77
63689;BMP280;54895;40.928;14.480;2024-02-23T05:10:25;100873.03;;;22.17
63689;BMP280;54895;40.928;14.480;2024-02-23T05:12:52;100862.53;;;21.54
63689;BMP280;54895;40.928;14.480;2024-02-23T05:15:19;100865.97;;;23.86
63689;BMP280;54895;40.928;14.480;2024-02-23T05:17:45;100869.16;;;24.23
63689;BMP280;54895;40.928;14.480;2024-02-23T05:20:13;100868.25;;;24.90
63689;BMP280;54895;40.928;14.480;2024-02-23T05:22:40;100866.06;;;26.64
63689;BMP280;54895;40.928;14.480;2024-02-23T05:25:07;100874.25;;;25.02
63689;BMP280;54895;40.928;14.480;2024-02-23T05:27:33;100864.06;;;24.02
63689;BMP280;54895;40.928;14.480;2024-02-23T05:30:00;100855.91;;;24.02
63689;BMP280;54895;40.928;14.480;2024-02-23T05:32:26;100865.13;;;27.12
63689;BMP280;54895;40.928;14.480;2024-02-23T05:34:53;100846.56;;;23.51
63689;BMP280;54895;40.928;14.480;2024-02-23T05:37:20;100857.34;;;25.18
63689;BMP280;54895;40.928;14.480;2024-02-23T05:39:47;100865.22;;;24.68
63689;BMP280;54895;40.928;14.480;2024-02-23T05:42:13;100863.44;;;24.17
63689;BMP280;54895;40.928;14.480;2024-02-23T05:44:43;100860.06;;;25.18
63689;BMP280;54895;40.928;14.480;2024-02-23T05:47:10;100853.19;;;25.33
63689;BMP280;54895;40.928;14.480;2024-02-23T05:49:37;100822.94;;;18.92
63689;BMP280;54895;40.928;14.480;2024-02-23T05:52:03;100854.03;;;24.76
63689;BMP280;54895;40.928;14.480;2024-02-23T05:54:30;100856.22;;;23.81
63689;BMP280;54895;40.928;14.480;2024-02-23T05:56:56;100851.69;;;24.55
63689;BMP280;54895;40.928;14.480;2024-02-23T05:59:23;100848.84;;;23.97
63689;BMP280;54895;40.928;14.480;2024-02-23T06:01:51;100851.03;;;24.85
63689;BMP280;54895;40.928;14.480;2024-02-23T06:04:18;100835.06;;;24.49
63689;BMP280;54895;40.928;14.480;2024-02-23T06:06:45;100837.03;;;24.62
63689;BMP280;54895;40.928;14.480;2024-02-23T06:09:12;100833.94;;;23.44
63689;BMP280;54895;40.928;14.480;2024-02-23T06:11:39;100831.16;;;22.79
63689;BMP280;54895;40.928;14.480;2024-02-23T06:14:05;100826.31;;;26.07
63689;BMP280;54895;40.928;14.480;2024-02-23T06:16:32;100812.38;;;26.51
63689;BMP280;54895;40.928;14.480;2024-02-23T06:18:58;100821.75;;;25.14
63689;BMP280;54895;40.928;14.480;2024-02-23T06:21:25;100829.09;;;24.81
63689;BMP280;54895;40.928;14.480;2024-02-23T06:26:51;100828.59;;;24.42
63689;BMP280;54895;40.928;14.480;2024-02-23T06:29:18;100834.06;;;23.73
63689;BMP280;54895;40.928;14.480;2024-02-23T06:31:44;100830.97;;;25.08
63689;BMP280;54895;40.928;14.480;2024-02-23T06:34:15;100831.44;;;27.25
63689;BMP280;54895;40.928;14.480;2024-02-23T06:36:42;100841.88;;;25.08
63689;BMP280;54895;40.928;14.480;2024-02-23T06:39:08;100830.03;;;26.50
63689;BMP280;54895;40.928;14.480;2024-02-23T06:41:34;100834.25;;;26.90
63689;BMP280;54895;40.928;14.480;2024-02-23T06:44:01;100827.44;;;27.28
63689;BMP280;54895;40.928;14.480;2024-02-23T06:46:28;100828.09;;;24.46
63689;BMP280;54895;40.928;14.480;2024-02-23T06:48:54;100822.25;;;23.42
63689;BMP280;54895;40.928;14.480;2024-02-23T06:51:20;100824.19;;;25.39
63689;BMP280;54895;40.928;14.480;2024-02-23T06:53:46;100817.41;;;22.88
63689;BMP280;54895;40.928;14.480;2024-02-23T06:56:13;100824.91;;;25.24
63689;BMP280;54895;40.928;14.480;2024-02-23T06:58:40;100830.53;;;24.98
63689;BMP280;54895;40.928;14.480;2024-02-23T07:01:06;100832.97;;;25.07
63689;BMP280;54895;40.928;14.480;2024-02-23T07:03:33;100829.75;;;23.81
63689;BMP280;54895;40.928;14.480;2024-02-23T07:06:01;100833.53;;;26.00
63689;BMP280;54895;40.928;14.480;2024-02-23T07:08:27;100833.06;;;29.38
63689;BMP280;54895;40.928;14.480;2024-02-23T07:10:54;100839.25;;;27.94
63689;BMP280;54895;40.928;14.480;2024-02-23T07:13:21;100835.66;;;28.11
63689;BMP280;54895;40.928;14.480;2024-02-23T07:15:47;100826.00;;;27.87
63689;BMP280;54895;40.928;14.480;2024-02-23T07:18:13;100814.03;;;25.24
63689;BMP280;54895;40.928;14.480;2024-02-23T07:20:39;100812.75;;;27.79
63689;BMP280;54895;40.928;14.480;2024-02-23T07:23:06;100812.72;;;26.98
63689;BMP280;54895;40.928;14.480;2024-02-23T07:25:33;100805.41;;;27.24
63689;BMP280;54895;40.928;14.480;2024-02-23T07:27:59;100803.84;;;27.57
63689;BMP280;54895;40.928;14.480;2024-02-23T07:30:26;100805.59;;;27.68
63689;BMP280;54895;40.928;14.480;2024-02-23T07:32:52;100802.94;;;28.15
63689;BMP280;54895;40.928;14.480;2024-02-23T07:35:18;100797.47;;;28.15
63689;BMP280;54895;40.928;14.480;2024-02-23T07:37:44;100806.09;;;28.06
63689;BMP280;54895;40.928;14.480;2024-02-23T07:40:11;100805.97;;;27.80
63689;BMP280;54895;40.928;14.480;2024-02-23T07:42:38;100818.00;;;26.74
63689;BMP280;54895;40.928;14.480;2024-02-23T07:45:06;100803.00;;;27.32
63689;BMP280;54895;40.928;14.480;2024-02-23T07:47:33;100796.75;;;27.91
63689;BMP280;54895;40.928;14.480;2024-02-23T07:49:59;100800.03;;;27.66
63689;BMP280;54895;40.928;14.480;2024-02-23T07:52:25;100797.94;;;28.31
63689;BMP280;54895;40.928;14.480;2024-02-23T07:54:52;100798.94;;;28.65
63689;BMP280;54895;40.928;14.480;2024-02-23T07:57:19;100816.47;;;28.79
63689;BMP280;54895;40.928;14.480;2024-02-23T07:59:46;100801.13;;;28.00
63689;BMP280;54895;40.928;14.480;2024-02-23T08:02:13;100796.13;;;27.71
63689;BMP280;54895;40.928;14.480;2024-02-23T08:04:40;100792.00;;;28.39
63689;BMP280;54895;40.928;14.480;2024-02-23T08:07:06;100795.25;;;27.45
63689;BMP280;54895;40.928;14.480;2024-02-23T08:09:32;100797.09;;;26.81
63689;BMP280;54895;40.928;14.480;2024-02-23T08:11:59;100789.66;;;27.03
63689;BMP280;54895;40.928;14.480;2024-02-23T08:14:25;100784.19;;;27.63
63689;BMP280;54895;40.928;14.480;2024-02-23T08:16:51;100786.09;;;26.79
63689;BMP280;54895;40.928;14.480;2024-02-23T08:19:17;100801.34;;;28.30
63689;BMP280;54895;40.928;14.480;2024-02-23T08:21:43;100797.13;;;26.63
63689;BMP280;54895;40.928;14.480;2024-02-23T08:26:59;100787.63;;;28.53
63689;BMP280;54895;40.928;14.480;2024-02-23T08:29:26;100785.00;;;26.86
63689;BMP280;54895;40.928;14.480;2024-02-23T08:31:52;100778.66;;;27.40
63689;BMP280;54895;40.928;14.480;2024-02-23T08:34:19;100786.38;;;28.33
63689;BMP280;54895;40.928;14.480;2024-02-23T08:36:45;100796.75;;;29.10
63689;BMP280;54895;40.928;14.480;2024-02-23T08:39:11;100804.69;;;28.75
63689;BMP280;54895;40.928;14.480;2024-02-23T08:41:38;100796.38;;;28.96
63689;BMP280;54895;40.928;14.480;2024-02-23T08:44:04;100805.00;;;28.87
63689;BMP280;54895;40.928;14.480;2024-02-23T08:46:31;100799.59;;;28.89
63689;BMP280;54895;40.928;14.480;2024-02-23T08:48:57;100793.38;;;29.14
63689;BMP280;54895;40.928;14.480;2024-02-23T08:51:23;100800.56;;;26.64
63689;BMP280;54895;40.928;14.480;2024-02-23T08:53:50;100804.22;;;28.12
63689;BMP280;54895;40.928;14.480;2024-02-23T08:56:16;100795.44;;;27.51
63689;BMP280;54895;40.928;14.480;2024-02-23T08:58:42;100803.94;;;30.43
63689;BMP280;54895;40.928;14.480;2024-02-23T09:01:08;100801.69;;;29.72
63689;BMP280;54895;40.928;14.480;2024-02-23T09:03:35;100782.25;;;29.06
63689;BMP280;54895;40.928;14.480;2024-02-23T09:06:02;100788.09;;;31.14
63689;BMP280;54895;40.928;14.480;2024-02-23T09:08:29;100783.53;;;30.20
63689;BMP280;54895;40.928;14.480;2024-02-23T09:10:55;100799.38;;;26.69
63689;BMP280;54895;40.928;14.480;2024-02-23T09:13:22;100790.22;;;26.43
63689;BMP280;54895;40.928;14.480;2024-02-23T09:15:48;100807.75;;;29.67
63689;BMP280;54895;40.928;14.480;2024-02-23T09:18:14;100795.38;;;30.62
63689;BMP280;54895;40.928;14.480;2024-02-23T09:20:40;100789.16;;;30.26
63689;BMP280;54895;40.928;14.480;2024-02-23T09:23:07;100784.66;;;30.76
63689;BMP280;54895;40.928;14.480;2024-02-23T09:25:33;100787.41;;;30.41
63689;BMP280;54895;40.928;14.480;2024-02-23T09:27:59;100789.09;;;29.91
63689;BMP280;54895;40.928;14.480;2024-02-23T09:30:25;100793.81;;;30.53
63689;BMP280;54895;40.928;14.480;2024-02-23T09:32:52;100802.03;;;30.18
63689;BMP280;54895;40.928;14.480;2024-02-23T09:35:18;100794.41;;;30.83
63689;BMP280;54895;40.928;14.480;2024-02-23T09:37:44;100798.47;;;30.45
63689;BMP280;54895;40.928;14.480;2024-02-23T09:40:11;100780.88;;;30.57
63689;BMP280;54895;40.928;14.480;2024-02-23T09:42:38;100782.06;;;29.84
63689;BMP280;54895;40.928;14.480;2024-02-23T09:45:05;100789.03;;;29.58
63689;BMP280;54895;40.928;14.480;2024-02-23T09:47:33;100786.28;;;29.03
63689;BMP280;54895;40.928;14.480;2024-02-23T09:50:00;100777.97;;;28.75
63689;BMP280;54895;40.928;14.480;2024-02-23T09:52:29;100779.81;;;28.67
63689;BMP280;54895;40.928;14.480;2024-02-23T09:54:56;100784.69;;;28.00
63689;BMP280;54895;40.928;14.480;2024-02-23T09:57:23;100789.81;;;27.88
63689;BMP280;54895;40.928;14.480;2024-02-23T09:59:50;100792.88;;;28.22
63689;BMP280;54895;40.928;14.480;2024-02-23T10:02:17;100798.19;;;27.51
63689;BMP280;54895;40.928;14.480;2024-02-23T10:04:44;100800.00;;;29.58
63689;BMP280;54895;40.928;14.480;2024-02-23T10:07:10;100784.03;;;27.78
63689;BMP280;54895;40.928;14.480;2024-02-23T10:09:40;100794.69;;;28.13
63689;BMP280;54895;40.928;14.480;2024-02-23T10:12:06;100796.53;;;27.64
63689;BMP280;54895;40.928;14.480;2024-02-23T10:14:33;100802.94;;;28.15
63689;BMP280;54895;40.928;14.480;2024-02-23T10:16:59;100803.44;;;28.31
63689;BMP280;54895;40.928;14.480;2024-02-23T10:19:27;100799.97;;;24.99
63689;BMP280;54895;40.928;14.480;2024-02-23T10:21:56;100793.09;;;28.51
63689;BMP280;54895;40.928;14.480;2024-02-23T10:28:40;100797.34;;;29.63
63689;BMP280;54895;40.928;14.480;2024-02-23T10:31:06;100795.94;;;29.06
63689;BMP280;54895;40.928;14.480;2024-02-23T10:33:34;100794.81;;;29.15
63689;BMP280;54895;40.928;14.480;2024-02-23T10:36:02;100784.94;;;28.08
63689;BMP280;54895;40.928;14.480;2024-02-23T10:38:32;100798.75;;;28.59
63689;BMP280;54895;40.928;14.480;2024-02-23T10:41:00;100791.91;;;27.68
63689;BMP280;54895;40.928;14.480;2024-02-23T10:43:35;100787.06;;;28.33
63689;BMP280;54895;40.928;14.480;2024-02-23T10:46:05;100792.63;;;28.37
63689;BMP280;54895;40.928;14.480;2024-02-23T10:48:34;100796.09;;;27.11
63689;BMP280;54895;40.928;14.480;2024-02-23T10:51:02;100789.06;;;27.86
63689;BMP280;54895;40.928;14.480;2024-02-23T10:53:30;100779.88;;;27.35
63689;BMP280;54895;40.928;14.480;2024-02-23T10:55:57;100774.75;;;28.11
63689;BMP280;54895;40.928;14.480;2024-02-23T10:58:26;100780.31;;;24.41
63689;BMP280;54895;40.928;14.480;2024-02-23T11:01:00;100779.44;;;26.84
63689;BMP280;54895;40.928;14.480;2024-02-23T11:03:31;100779.22;;;27.79
63689;BMP280;54895;40.928;14.480;2024-02-23T11:05:59;100754.59;;;25.69
63689;BMP280;54895;40.928;14.480;2024-02-23T11:08:29;100758.13;;;28.50
63689;BMP280;54895;40.928;14.480;2024-02-23T11:10:56;100763.72;;;29.32
63689;BMP280;54895;40.928;14.480;2024-02-23T11:13:34;100752.31;;;29.70
63689;BMP280;54895;40.928;14.480;2024-02-23T11:16:02;100748.34;;;28.19
63689;BMP280;54895;40.928;14.480;2024-02-23T11:18:29;100753.28;;;28.48
63689;BMP280;54895;40.928;14.480;2024-02-23T11:20:58;100749.97;;;28.52
63689;BMP280;54895;40.928;14.480;2024-02-23T11:23:24;100760.09;;;29.52
63689;BMP280;54895;40.928;14.480;2024-02-23T11:30:08;100735.09;;;30.33
63689;BMP280;54895;40.928;14.480;2024-02-23T11:32:46;100727.69;;;29.45
63689;BMP280;54895;40.928;14.480;2024-02-23T11:35:25;100732.34;;;28.10
63689;BMP280;54895;40.928;14.480;2024-02-23T11:37:54;100736.16;;;29.86
63689;BMP280;54895;40.928;14.480;2024-02-23T11:40:28;100730.19;;;28.30
63689;BMP280;54895;40.928;14.480;2024-02-23T11:42:56;100719.47;;;28.63
63689;BMP280;54895;40.928;14.480;2024-02-23T11:45:24;100714.44;;;29.36
63689;BMP280;54895;40.928;14.480;2024-02-23T11:47:50;100715.66;;;28.74
63689;BMP280;54895;40.928;14.480;2024-02-23T11:50:17;100724.56;;;28.49
63689;BMP280;54895;40.928;14.480;2024-02-23T11:52:46;100712.19;;;30.20
63689;BMP280;54895;40.928;14.480;2024-02-23T11:55:18;100711.97;;;29.18
63689;BMP280;54895;40.928;14.480;2024-02-23T11:57:48;100696.81;;;29.43
63689;BMP280;54895;40.928;14.480;2024-02-23T12:00:14;100715.69;;;28.76
63689;BMP280;54895;40.928;14.480;2024-02-23T12:02:41;100701.06;;;25.60
63689;BMP280;54895;40.928;14.480;2024-02-23T12:05:07;100701.31;;;26.94
63689;BMP280;54895;40.928;14.480;2024-02-23T12:07:34;100712.81;;;26.91
63689;BMP280;54895;40.928;14.480;2024-02-23T12:10:00;100722.03;;;28.08
63689;BMP280;54895;40.928;14.480;2024-02-23T12:12:27;100711.03;;;26.41
63689;BMP280;54895;40.928;14.480;2024-02-23T12:14:54;100721.56;;;25.79
63689;BMP280;54895;40.928;14.480;2024-02-23T12:17:20;100719.25;;;25.06
63689;BMP280;54895;40.928;14.480;2024-02-23T12:19:46;100709.09;;;25.23
63689;BMP280;54895;40.928;14.480;2024-02-23T12:22:13;100726.13;;;27.22
63689;BMP280;54895;40.928;14.480;2024-02-23T12:24:41;100718.56;;;27.84
63689;BMP280;54895;40.928;14.480;2024-02-23T12:27:07;100708.44;;;24.77
63689;BMP280;54895;40.928;14.480;2024-02-23T12:32:20;100711.72;;;26.41
63689;BMP280;54895;40.928;14.480;2024-02-23T12:34:47;100705.97;;;24.83
63689;BMP280;54895;40.928;14.480;2024-02-23T12:37:17;100686.69;;;26.66
63689;BMP280;54895;40.928;14.480;2024-02-23T12:39:44;100669.03;;;26.50
63689;BMP280;54895;40.928;14.480;2024-02-23T12:42:10;100667.91;;;25.83
63689;BMP280;54895;40.928;14.480;2024-02-23T12:44:36;100675.56;;;27.21
63689;BMP280;54895;40.928;14.480;2024-02-23T12:47:03;100671.97;;;26.56
63689;BMP280;54895;40.928;14.480;2024-02-23T12:49:29;100670.03;;;27.85
63689;BMP280;54895;40.928;14.480;2024-02-23T12:51:56;100663.69;;;26.93
63689;BMP280;54895;40.928;14.480;2024-02-23T12:54:22;100663.16;;;23.50
63689;BMP280;54895;40.928;14.480;2024-02-23T12:56:49;100646.41;;;27.50
63689;BMP280;54895;40.928;14.480;2024-02-23T12:59:15;100643.28;;;27.37
63689;BMP280;54895;40.928;14.480;2024-02-23T13:01:42;100649.66;;;27.02
63689;BMP280;54895;40.928;14.480;2024-02-23T13:04:08;100645.09;;;25.92
63689;BMP280;54895;40.928;14.480;2024-02-23T13:06:38;100645.81;;;26.88
63689;BMP280;54895;40.928;14.480;2024-02-23T13:09:05;100642.06;;;27.20
63689;BMP280;54895;40.928;14.480;2024-02-23T13:11:31;100638.75;;;26.05
63689;BMP280;54895;40.928;14.480;2024-02-23T13:13:57;100632.47;;;25.83
63689;BMP280;54895;40.928;14.480;2024-02-23T13:16:24;100627.56;;;25.97
63689;BMP280;54895;40.928;14.480;2024-02-23T13:18:51;100633.22;;;26.79
63689;BMP280;54895;40.928;14.480;2024-02-23T13:21:17;100614.22;;;26.83
63689;BMP280;54895;40.928;14.480;2024-02-23T13:23:44;100617.22;;;27.34
63689;BMP280;54895;40.928;14.480;2024-02-23T13:26:10;100615.88;;;27.79
63689;BMP280;54895;40.928;14.480;2024-02-23T13:28:37;100622.25;;;28.11
63689;BMP280;54895;40.928;14.480;2024-02-23T13:33:50;100611.25;;;29.81
63689;BMP280;54895;40.928;14.480;2024-02-23T13:36:17;100621.63;;;29.53
63689;BMP280;54895;40.928;14.480;2024-02-23T13:38:43;100627.19;;;28.42
63689;BMP280;54895;40.928;14.480;2024-02-23T13:41:09;100616.72;;;29.17
63689;BMP280;54895;40.928;14.480;2024-02-23T13:43:35;100627.09;;;28.38
63689;BMP280;54895;40.928;14.480;2024-02-23T13:46:02;100631.13;;;27.86
63689;BMP280;54895;40.928;14.480;2024-02-23T13:48:29;100631.56;;;28.02
63689;BMP280;54895;40.928;14.480;2024-02-23T13:50:56;100624.25;;;27.62
63689;BMP280;54895;40.928;14.480;2024-02-23T13:55:49;100611.91;;;27.84
63689;BMP280;54895;40.928;14.480;2024-02-23T13:58:16;100608.66;;;27.43
63689;BMP280;54895;40.928;14.480;2024-02-23T14:00:43;100615.31;;;26.54
63689;BMP280;54895;40.928;14.480;2024-02-23T14:03:16;100605.47;;;27.29
63689;BMP280;54895;40.928;14.480;2024-02-23T14:05:42;100614.31;;;26.46
63689;BMP280;54895;40.928;14.480;2024-02-23T14:08:10;100614.31;;;27.28
63689;BMP280;54895;40.928;14.480;2024-02-23T14:10:37;100613.41;;;27.42
63689;BMP280;54895;40.928;14.480;2024-02-23T14:13:03;100610.06;;;26.41
63689;BMP280;54895;40.928;14.480;2024-02-23T14:15:30;100601.81;;;26.80
63689;BMP280;54895;40.928;14.480;2024-02-23T14:17:56;100604.19;;;26.29
63689;BMP280;54895;40.928;14.480;2024-02-23T14:20:22;100617.03;;;27.49